sensor_id;sensor_type;location;lat;lon;timestamp;P1;durP1;ratioP1;P2;durP2;ratioP2
21000;SDS011;10658;50.920;12.238;2023-12-14T00:01:24;7.15;;;5.75;;
21000;SDS011;10658;50.920;12.238;2023-12-14T00:05:24;5.35;;;4.38;;
21000;SDS011;10658;50.920;12.238;2023-12-14T00:09:25;6.47;;;4.88;;
21000;SDS011;10658;50.920;12.238;2023-12-14T00:13:26;6.85;;;5.38;;
21000;SDS011;10658;50.920;12.238;2023-12-14T00:17:27;5.40;;;4.28;;
21000;SDS011;10658;50.920;12.238;2023-12-14T00:21:28;5.97;;;4.53;;
21000;SDS011;10658;50.920;12.238;2023-12-14T00:25:28;10.10;;;5.90;;
21000;SDS011;10658;50.920;12.238;2023-12-14T00:29:29;6.82;;;5.03;;
21000;SDS011;10658;50.920;12.238;2023-12-14T00:33:30;9.48;;;6.22;;
21000;SDS011;10658;50.920;12.238;2023-12-14T00:37:31;11.23;;;5.93;;
21000;SDS011;10658;50.920;12.238;2023-12-14T00:41:32;12.32;;;7.63;;
21000;SDS011;10658;50.920;12.238;2023-12-14T00:45:33;10.98;;;6.82;;
21000;SDS011;10658;50.920;12.238;2023-12-14T00:49:33;9.43;;;5.78;;
21000;SDS011;10658;50.920;12.238;2023-12-14T00:53:34;6.95;;;4.60;;
21000;SDS011;10658;50.920;12.238;2023-12-14T00:57:35;7.70;;;4.97;;
21000;SDS011;10658;50.920;12.238;2023-12-14T01:01:36;7.25;;;5.05;;
21000;SDS011;10658;50.920;12.238;2023-12-14T01:05:37;8.20;;;5.68;;
21000;SDS011;10658;50.920;12.238;2023-12-14T01:09:38;7.15;;;5.35;;
21000;SDS011;10658;50.920;12.238;2023-12-14T01:13:39;9.98;;;6.22;;
21000;SDS011;10658;50.920;12.238;2023-12-14T01:17:39;9.32;;;5.60;;
21000;SDS011;10658;50.920;12.238;2023-12-14T01:21:40;8.50;;;5.82;;
21000;SDS011;10658;50.920;12.238;2023-12-14T01:25:41;9.20;;;6.22;;
21000;SDS011;10658;50.920;12.238;2023-12-14T01:29:42;10.15;;;5.78;;
21000;SDS011;10658;50.920;12.238;2023-12-14T01:33:43;9.00;;;5.95;;
21000;SDS011;10658;50.920;12.238;2023-12-14T01:37:45;9.70;;;6.35;;
21000;SDS011;10658;50.920;12.238;2023-12-14T01:41:47;8.40;;;5.53;;
21000;SDS011;10658;50.920;12.238;2023-12-14T01:45:49;8.05;;;5.40;;
21000;SDS011;10658;50.920;12.238;2023-12-14T01:49:50;7.40;;;4.53;;
21000;SDS011;10658;50.920;12.238;2023-12-14T01:53:51;8.43;;;4.88;;
21000;SDS011;10658;50.920;12.238;2023-12-14T01:57:51;8.40;;;4.88;;
21000;SDS011;10658;50.920;12.238;2023-12-14T02:01:52;6.15;;;4.10;;
21000;SDS011;10658;50.920;12.238;2023-12-14T02:05:56;7.18;;;4.63;;
21000;SDS011;10658;50.920;12.238;2023-12-14T02:09:58;7.10;;;4.93;;
21000;SDS011;10658;50.920;12.238;2023-12-14T02:14:02;7.35;;;4.78;;
21000;SDS011;10658;50.920;12.238;2023-12-14T02:18:04;7.82;;;4.65;;
21000;SDS011;10658;50.920;12.238;2023-12-14T02:22:05;9.80;;;4.97;;
21000;SDS011;10658;50.920;12.238;2023-12-14T02:26:06;7.70;;;4.80;;
21000;SDS011;10658;50.920;12.238;2023-12-14T02:30:07;8.40;;;4.90;;
21000;SDS011;10658;50.920;12.238;2023-12-14T02:34:08;11.65;;;7.07;;
21000;SDS011;10658;50.920;12.238;2023-12-14T02:38:09;16.42;;;8.25;;
21000;SDS011;10658;50.920;12.238;2023-12-14T02:42:10;17.95;;;8.43;;
21000;SDS011;10658;50.920;12.238;2023-12-14T02:46:11;23.10;;;10.32;;
21000;SDS011;10658;50.920;12.238;2023-12-14T02:50:15;29.85;;;12.13;;
21000;SDS011;10658;50.920;12.238;2023-12-14T02:54:16;37.28;;;12.93;;
21000;SDS011;10658;50.920;12.238;2023-12-14T02:58:18;38.35;;;11.98;;
21000;SDS011;10658;50.920;12.238;2023-12-14T03:02:19;21.38;;;10.18;;
21000;SDS011;10658;50.920;12.238;2023-12-14T03:06:21;34.30;;;11.30;;
21000;SDS011;10658;50.920;12.238;2023-12-14T03:10:22;37.72;;;11.93;;
21000;SDS011;10658;50.920;12.238;2023-12-14T03:14:23;24.77;;;9.95;;
21000;SDS011;10658;50.920;12.238;2023-12-14T03:18:24;20.52;;;9.00;;
21000;SDS011;10658;50.920;12.238;2023-12-14T03:22:24;13.93;;;7.85;;
21000;SDS011;10658;50.920;12.238;2023-12-14T03:26:25;18.98;;;7.65;;
21000;SDS011;10658;50.920;12.238;2023-12-14T03:30:26;13.82;;;5.90;;
21000;SDS011;10658;50.920;12.238;2023-12-14T03:34:27;27.85;;;8.43;;
21000;SDS011;10658;50.920;12.238;2023-12-14T03:38:28;25.90;;;7.82;;
21000;SDS011;10658;50.920;12.238;2023-12-14T03:42:28;38.63;;;9.93;;
21000;SDS011;10658;50.920;12.238;2023-12-14T03:46:29;36.83;;;8.45;;
21000;SDS011;10658;50.920;12.238;2023-12-14T03:50:31;34.25;;;9.45;;
21000;SDS011;10658;50.920;12.238;2023-12-14T03:54:32;25.77;;;7.90;;
21000;SDS011;10658;50.920;12.238;2023-12-14T03:58:33;41.55;;;9.45;;
21000;SDS011;10658;50.920;12.238;2023-12-14T04:02:34;28.33;;;8.93;;
21000;SDS011;10658;50.920;12.238;2023-12-14T04:06:35;39.05;;;9.65;;
21000;SDS011;10658;50.920;12.238;2023-12-14T04:10:36;34.03;;;9.85;;
21000;SDS011;10658;50.920;12.238;2023-12-14T04:14:37;21.85;;;9.90;;
21000;SDS011;10658;50.920;12.238;2023-12-14T04:18:37;18.33;;;8.77;;
21000;SDS011;10658;50.920;12.238;2023-12-14T04:22:39;23.00;;;9.52;;
21000;SDS011;10658;50.920;12.238;2023-12-14T04:26:40;25.98;;;10.05;;
21000;SDS011;10658;50.920;12.238;2023-12-14T04:30:42;21.30;;;8.88;;
21000;SDS011;10658;50.920;12.238;2023-12-14T04:34:43;19.05;;;8.88;;
21000;SDS011;10658;50.920;12.238;2023-12-14T04:38:44;25.13;;;9.80;;
21000;SDS011;10658;50.920;12.238;2023-12-14T04:42:46;16.52;;;8.63;;
21000;SDS011;10658;50.920;12.238;2023-12-14T04:46:47;17.08;;;8.43;;
21000;SDS011;10658;50.920;12.238;2023-12-14T04:50:48;18.67;;;8.20;;
21000;SDS011;10658;50.920;12.238;2023-12-14T04:54:49;18.55;;;8.07;;
21000;SDS011;10658;50.920;12.238;2023-12-14T04:58:50;19.05;;;8.20;;
21000;SDS011;10658;50.920;12.238;2023-12-14T05:02:51;20.38;;;8.43;;
21000;SDS011;10658;50.920;12.238;2023-12-14T05:06:51;28.73;;;8.77;;
21000;SDS011;10658;50.920;12.238;2023-12-14T05:10:52;18.02;;;9.02;;
21000;SDS011;10658;50.920;12.238;2023-12-14T05:14:53;32.75;;;10.35;;
21000;SDS011;10658;50.920;12.238;2023-12-14T05:18:54;19.85;;;9.63;;
21000;SDS011;10658;50.920;12.238;2023-12-14T05:22:55;28.65;;;9.80;;
21000;SDS011;10658;50.920;12.238;2023-12-14T05:26:56;31.77;;;10.35;;
21000;SDS011;10658;50.920;12.238;2023-12-14T05:30:57;27.38;;;11.00;;
21000;SDS011;10658;50.920;12.238;2023-12-14T05:34:57;33.83;;;9.15;;
21000;SDS011;10658;50.920;12.238;2023-12-14T05:38:59;23.17;;;9.80;;
21000;SDS011;10658;50.920;12.238;2023-12-14T05:43:00;31.58;;;10.38;;
21000;SDS011;10658;50.920;12.238;2023-12-14T05:47:01;28.45;;;9.38;;
21000;SDS011;10658;50.920;12.238;2023-12-14T05:51:02;20.67;;;8.50;;
21000;SDS011;10658;50.920;12.238;2023-12-14T05:55:03;36.50;;;9.15;;
21000;SDS011;10658;50.920;12.238;2023-12-14T05:59:05;25.73;;;8.20;;
21000;SDS011;10658;50.920;12.238;2023-12-14T06:03:06;24.45;;;8.95;;
21000;SDS011;10658;50.920;12.238;2023-12-14T06:07:07;25.13;;;8.38;;
21000;SDS011;10658;50.920;12.238;2023-12-14T06:11:08;30.05;;;9.77;;
21000;SDS011;10658;50.920;12.238;2023-12-14T06:15:09;31.38;;;10.20;;
21000;SDS011;10658;50.920;12.238;2023-12-14T06:19:11;29.85;;;9.60;;
21000;SDS011;10658;50.920;12.238;2023-12-14T06:23:11;23.08;;;9.27;;
21000;SDS011;10658;50.920;12.238;2023-12-14T06:27:13;19.70;;;8.25;;
21000;SDS011;10658;50.920;12.238;2023-12-14T06:31:14;17.65;;;7.15;;
21000;SDS011;10658;50.920;12.238;2023-12-14T06:35:15;16.77;;;7.95;;
21000;SDS011;10658;50.920;12.238;2023-12-14T06:39:16;24.85;;;8.52;;
21000;SDS011;10658;50.920;12.238;2023-12-14T06:43:26;18.70;;;7.88;;
21000;SDS011;10658;50.920;12.238;2023-12-14T06:47:27;29.80;;;10.63;;
21000;SDS011;10658;50.920;12.238;2023-12-14T06:51:28;52.10;;;13.63;;
21000;SDS011;10658;50.920;12.238;2023-12-14T06:55:29;23.23;;;9.77;;
21000;SDS011;10658;50.920;12.238;2023-12-14T06:59:30;23.38;;;9.32;;
21000;SDS011;10658;50.920;12.238;2023-12-14T07:03:31;19.20;;;9.02;;
21000;SDS011;10658;50.920;12.238;2023-12-14T07:07:32;21.45;;;9.35;;
21000;SDS011;10658;50.920;12.238;2023-12-14T07:11:33;23.25;;;10.43;;
21000;SDS011;10658;50.920;12.238;2023-12-14T07:15:34;29.45;;;10.85;;
21000;SDS011;10658;50.920;12.238;2023-12-14T07:19:34;32.95;;;10.95;;
21000;SDS011;10658;50.920;12.238;2023-12-14T07:23:36;23.08;;;11.85;;
21000;SDS011;10658;50.920;12.238;2023-12-14T07:27:37;21.27;;;9.77;;
21000;SDS011;10658;50.920;12.238;2023-12-14T07:31:38;31.38;;;11.02;;
21000;SDS011;10658;50.920;12.238;2023-12-14T07:35:38;22.63;;;10.85;;
21000;SDS011;10658;50.920;12.238;2023-12-14T07:39:39;28.38;;;9.98;;
21000;SDS011;10658;50.920;12.238;2023-12-14T07:43:40;34.55;;;10.50;;
21000;SDS011;10658;50.920;12.238;2023-12-14T07:47:41;30.63;;;12.82;;
21000;SDS011;10658;50.920;12.238;2023-12-14T07:51:42;21.48;;;10.45;;
21000;SDS011;10658;50.920;12.238;2023-12-14T07:55:43;25.23;;;10.90;;
21000;SDS011;10658;50.920;12.238;2023-12-14T07:59:44;27.15;;;11.25;;
21000;SDS011;10658;50.920;12.238;2023-12-14T08:03:46;16.92;;;10.27;;
21000;SDS011;10658;50.920;12.238;2023-12-14T08:07:47;37.10;;;13.18;;
21000;SDS011;10658;50.920;12.238;2023-12-14T08:11:48;30.30;;;12.98;;
21000;SDS011;10658;50.920;12.238;2023-12-14T08:15:50;26.92;;;12.90;;
21000;SDS011;10658;50.920;12.238;2023-12-14T08:19:52;59.70;;;16.45;;
21000;SDS011;10658;50.920;12.238;2023-12-14T08:23:53;78.97;;;16.17;;
21000;SDS011;10658;50.920;12.238;2023-12-14T08:27:53;32.47;;;13.70;;
21000;SDS011;10658;50.920;12.238;2023-12-14T08:31:54;20.75;;;11.65;;
21000;SDS011;10658;50.920;12.238;2023-12-14T08:35:57;23.77;;;12.38;;
21000;SDS011;10658;50.920;12.238;2023-12-14T08:39:58;29.35;;;13.77;;
21000;SDS011;10658;50.920;12.238;2023-12-14T08:43:59;30.77;;;14.07;;
21000;SDS011;10658;50.920;12.238;2023-12-14T08:48:00;30.38;;;13.05;;
21000;SDS011;10658;50.920;12.238;2023-12-14T08:52:01;29.42;;;12.65;;
21000;SDS011;10658;50.920;12.238;2023-12-14T08:56:02;23.30;;;10.50;;
21000;SDS011;10658;50.920;12.238;2023-12-14T09:00:03;19.98;;;11.00;;
21000;SDS011;10658;50.920;12.238;2023-12-14T09:04:05;18.80;;;9.10;;
21000;SDS011;10658;50.920;12.238;2023-12-14T09:08:06;13.88;;;7.30;;
21000;SDS011;10658;50.920;12.238;2023-12-14T09:12:07;13.32;;;7.22;;
21000;SDS011;10658;50.920;12.238;2023-12-14T09:16:08;18.58;;;9.65;;
21000;SDS011;10658;50.920;12.238;2023-12-14T09:20:09;19.48;;;9.98;;
21000;SDS011;10658;50.920;12.238;2023-12-14T09:24:11;21.77;;;9.73;;
21000;SDS011;10658;50.920;12.238;2023-12-14T09:28:12;16.60;;;7.38;;
21000;SDS011;10658;50.920;12.238;2023-12-14T09:32:13;14.75;;;7.20;;
21000;SDS011;10658;50.920;12.238;2023-12-14T09:36:14;20.67;;;9.45;;
21000;SDS011;10658;50.920;12.238;2023-12-14T09:40:15;20.20;;;9.73;;
21000;SDS011;10658;50.920;12.238;2023-12-14T09:44:16;23.20;;;11.35;;
21000;SDS011;10658;50.920;12.238;2023-12-14T09:48:18;20.83;;;9.52;;
21000;SDS011;10658;50.920;12.238;2023-12-14T09:52:20;20.73;;;10.10;;
21000;SDS011;10658;50.920;12.238;2023-12-14T09:56:21;14.80;;;9.38;;
21000;SDS011;10658;50.920;12.238;2023-12-14T10:00:38;13.23;;;6.72;;
21000;SDS011;10658;50.920;12.238;2023-12-14T10:04:42;16.00;;;9.00;;
21000;SDS011;10658;50.920;12.238;2023-12-14T10:08:50;9.30;;;5.53;;
21000;SDS011;10658;50.920;12.238;2023-12-14T10:12:56;8.48;;;4.88;;
21000;SDS011;10658;50.920;12.238;2023-12-14T10:16:58;20.27;;;11.38;;
21000;SDS011;10658;50.920;12.238;2023-12-14T10:20:58;12.88;;;7.32;;
21000;SDS011;10658;50.920;12.238;2023-12-14T10:24:59;13.18;;;7.22;;
21000;SDS011;10658;50.920;12.238;2023-12-14T10:29:01;54.83;;;25.13;;
21000;SDS011;10658;50.920;12.238;2023-12-14T10:33:04;25.02;;;13.25;;
21000;SDS011;10658;50.920;12.238;2023-12-14T10:37:06;7.72;;;4.00;;
21000;SDS011;10658;50.920;12.238;2023-12-14T10:41:07;5.70;;;3.78;;
21000;SDS011;10658;50.920;12.238;2023-12-14T10:45:12;5.57;;;3.88;;
21000;SDS011;10658;50.920;12.238;2023-12-14T10:49:16;5.13;;;3.60;;
21000;SDS011;10658;50.920;12.238;2023-12-14T10:53:18;8.38;;;3.90;;
21000;SDS011;10658;50.920;12.238;2023-12-14T10:57:19;6.28;;;4.00;;
21000;SDS011;10658;50.920;12.238;2023-12-14T11:01:20;6.72;;;4.80;;
21000;SDS011;10658;50.920;12.238;2023-12-14T11:05:24;6.18;;;3.80;;
21000;SDS011;10658;50.920;12.238;2023-12-14T11:09:30;16.48;;;7.25;;
21000;SDS011;10658;50.920;12.238;2023-12-14T11:13:32;24.38;;;11.68;;
21000;SDS011;10658;50.920;12.238;2023-12-14T11:17:33;17.92;;;9.15;;
21000;SDS011;10658;50.920;12.238;2023-12-14T11:21:36;15.95;;;8.20;;
21000;SDS011;10658;50.920;12.238;2023-12-14T11:25:37;17.13;;;9.05;;
21000;SDS011;10658;50.920;12.238;2023-12-14T11:29:38;15.85;;;8.55;;
21000;SDS011;10658;50.920;12.238;2023-12-14T11:33:42;18.30;;;8.60;;
21000;SDS011;10658;50.920;12.238;2023-12-14T11:37:44;20.58;;;10.40;;
21000;SDS011;10658;50.920;12.238;2023-12-14T11:41:58;14.52;;;8.68;;
21000;SDS011;10658;50.920;12.238;2023-12-14T11:46:03;10.75;;;6.20;;
21000;SDS011;10658;50.920;12.238;2023-12-14T11:50:04;11.30;;;6.78;;
21000;SDS011;10658;50.920;12.238;2023-12-14T11:54:06;11.50;;;7.15;;
21000;SDS011;10658;50.920;12.238;2023-12-14T11:58:08;11.38;;;6.57;;
21000;SDS011;10658;50.920;12.238;2023-12-14T12:02:11;15.20;;;7.70;;
21000;SDS011;10658;50.920;12.238;2023-12-14T12:06:46;16.70;;;8.30;;
21000;SDS011;10658;50.920;12.238;2023-12-14T12:10:40;12.88;;;7.53;;
21000;SDS011;10658;50.920;12.238;2023-12-14T12:14:42;15.73;;;8.38;;
21000;SDS011;10658;50.920;12.238;2023-12-14T12:18:43;14.77;;;7.40;;
21000;SDS011;10658;50.920;12.238;2023-12-14T12:22:43;11.60;;;5.75;;
21000;SDS011;10658;50.920;12.238;2023-12-14T12:26:44;9.68;;;4.07;;
21000;SDS011;10658;50.920;12.238;2023-12-14T12:30:45;8.73;;;4.78;;
21000;SDS011;10658;50.920;12.238;2023-12-14T12:34:47;6.80;;;3.67;;
21000;SDS011;10658;50.920;12.238;2023-12-14T12:38:47;7.95;;;3.75;;
21000;SDS011;10658;50.920;12.238;2023-12-14T12:42:49;7.82;;;4.07;;
21000;SDS011;10658;50.920;12.238;2023-12-14T12:46:50;9.52;;;4.70;;
21000;SDS011;10658;50.920;12.238;2023-12-14T12:50:58;8.02;;;4.03;;
21000;SDS011;10658;50.920;12.238;2023-12-14T12:55:04;7.47;;;4.60;;
21000;SDS011;10658;50.920;12.238;2023-12-14T12:59:07;6.65;;;3.60;;
21000;SDS011;10658;50.920;12.238;2023-12-14T13:03:08;6.55;;;3.15;;
21000;SDS011;10658;50.920;12.238;2023-12-14T13:07:10;4.47;;;2.83;;
21000;SDS011;10658;50.920;12.238;2023-12-14T13:11:12;3.85;;;2.15;;
21000;SDS011;10658;50.920;12.238;2023-12-14T13:15:13;4.75;;;2.30;;
21000;SDS011;10658;50.920;12.238;2023-12-14T13:19:14;3.72;;;2.45;;
21000;SDS011;10658;50.920;12.238;2023-12-14T13:23:16;2.25;;;1.75;;
21000;SDS011;10658;50.920;12.238;2023-12-14T13:27:17;4.05;;;2.28;;
21000;SDS011;10658;50.920;12.238;2023-12-14T13:31:18;3.92;;;2.45;;
21000;SDS011;10658;50.920;12.238;2023-12-14T13:35:19;5.00;;;3.67;;
21000;SDS011;10658;50.920;12.238;2023-12-14T13:39:22;10.57;;;6.90;;
21000;SDS011;10658;50.920;12.238;2023-12-14T13:43:23;7.20;;;4.68;;
21000;SDS011;10658;50.920;12.238;2023-12-14T13:47:25;7.25;;;4.53;;
21000;SDS011;10658;50.920;12.238;2023-12-14T13:51:28;11.75;;;6.28;;
21000;SDS011;10658;50.920;12.238;2023-12-14T13:55:29;10.20;;;5.82;;
21000;SDS011;10658;50.920;12.238;2023-12-14T13:59:30;8.55;;;4.72;;
21000;SDS011;10658;50.920;12.238;2023-12-14T14:03:31;8.25;;;4.13;;
21000;SDS011;10658;50.920;12.238;2023-12-14T14:07:36;7.63;;;4.47;;
21000;SDS011;10658;50.920;12.238;2023-12-14T14:11:37;6.03;;;4.05;;
21000;SDS011;10658;50.920;12.238;2023-12-14T14:15:38;8.40;;;4.55;;
21000;SDS011;10658;50.920;12.238;2023-12-14T14:19:39;9.55;;;5.75;;
21000;SDS011;10658;50.920;12.238;2023-12-14T14:23:42;8.43;;;4.78;;
21000;SDS011;10658;50.920;12.238;2023-12-14T14:27:43;8.40;;;4.80;;
21000;SDS011;10658;50.920;12.238;2023-12-14T14:31:47;8.50;;;4.75;;
21000;SDS011;10658;50.920;12.238;2023-12-14T14:35:48;11.85;;;6.15;;
21000;SDS011;10658;50.920;12.238;2023-12-14T14:39:50;6.07;;;4.57;;
21000;SDS011;10658;50.920;12.238;2023-12-14T14:43:55;9.82;;;6.28;;
21000;SDS011;10658;50.920;12.238;2023-12-14T14:47:59;15.25;;;7.60;;
21000;SDS011;10658;50.920;12.238;2023-12-14T14:52:01;9.13;;;6.40;;
21000;SDS011;10658;50.920;12.238;2023-12-14T14:56:02;9.50;;;5.00;;
21000;SDS011;10658;50.920;12.238;2023-12-14T15:00:03;9.88;;;6.25;;
21000;SDS011;10658;50.920;12.238;2023-12-14T15:04:05;10.95;;;6.22;;
21000;SDS011;10658;50.920;12.238;2023-12-14T15:08:06;8.52;;;5.40;;
21000;SDS011;10658;50.920;12.238;2023-12-14T15:12:07;9.10;;;5.78;;
21000;SDS011;10658;50.920;12.238;2023-12-14T15:16:08;8.75;;;5.97;;
21000;SDS011;10658;50.920;12.238;2023-12-14T15:20:27;9.68;;;5.60;;
21000;SDS011;10658;50.920;12.238;2023-12-14T15:24:28;7.43;;;4.80;;
21000;SDS011;10658;50.920;12.238;2023-12-14T15:28:29;8.95;;;4.97;;
21000;SDS011;10658;50.920;12.238;2023-12-14T15:32:30;10.90;;;5.93;;
21000;SDS011;10658;50.920;12.238;2023-12-14T15:36:31;13.45;;;7.00;;
21000;SDS011;10658;50.920;12.238;2023-12-14T15:40:34;17.05;;;9.13;;
21000;SDS011;10658;50.920;12.238;2023-12-14T15:44:39;15.80;;;7.35;;
21000;SDS011;10658;50.920;12.238;2023-12-14T15:48:39;11.13;;;6.70;;
21000;SDS011;10658;50.920;12.238;2023-12-14T15:52:42;12.52;;;6.50;;
21000;SDS011;10658;50.920;12.238;2023-12-14T15:56:43;13.55;;;7.50;;
21000;SDS011;10658;50.920;12.238;2023-12-14T16:00:44;13.18;;;7.05;;
21000;SDS011;10658;50.920;12.238;2023-12-14T16:04:48;7.82;;;5.45;;
21000;SDS011;10658;50.920;12.238;2023-12-14T16:09:00;7.38;;;4.80;;
21000;SDS011;10658;50.920;12.238;2023-12-14T16:13:04;9.45;;;5.43;;
21000;SDS011;10658;50.920;12.238;2023-12-14T16:17:05;7.90;;;5.75;;
21000;SDS011;10658;50.920;12.238;2023-12-14T16:21:06;9.50;;;4.82;;
21000;SDS011;10658;50.920;12.238;2023-12-14T16:25:09;9.70;;;6.05;;
21000;SDS011;10658;50.920;12.238;2023-12-14T16:29:11;8.52;;;5.03;;
21000;SDS011;10658;50.920;12.238;2023-12-14T16:33:12;8.05;;;5.50;;
21000;SDS011;10658;50.920;12.238;2023-12-14T16:37:14;7.07;;;4.47;;
21000;SDS011;10658;50.920;12.238;2023-12-14T16:41:21;8.93;;;5.43;;
21000;SDS011;10658;50.920;12.238;2023-12-14T16:45:22;10.93;;;6.28;;
21000;SDS011;10658;50.920;12.238;2023-12-14T16:49:23;8.63;;;6.05;;
21000;SDS011;10658;50.920;12.238;2023-12-14T16:53:24;9.93;;;6.60;;
21000;SDS011;10658;50.920;12.238;2023-12-14T16:57:26;12.18;;;7.10;;
21000;SDS011;10658;50.920;12.238;2023-12-14T17:01:26;14.65;;;8.02;;
21000;SDS011;10658;50.920;12.238;2023-12-14T17:05:27;19.80;;;9.88;;
21000;SDS011;10658;50.920;12.238;2023-12-14T17:09:28;16.88;;;8.95;;
21000;SDS011;10658;50.920;12.238;2023-12-14T17:13:30;14.02;;;6.97;;
21000;SDS011;10658;50.920;12.238;2023-12-14T17:17:36;13.63;;;9.93;;
21000;SDS011;10658;50.920;12.238;2023-12-14T17:21:37;12.95;;;8.18;;
21000;SDS011;10658;50.920;12.238;2023-12-14T17:25:38;13.90;;;6.70;;
21000;SDS011;10658;50.920;12.238;2023-12-14T17:29:39;11.95;;;7.15;;
21000;SDS011;10658;50.920;12.238;2023-12-14T17:33:40;12.02;;;8.02;;
21000;SDS011;10658;50.920;12.238;2023-12-14T17:37:41;18.00;;;7.93;;
21000;SDS011;10658;50.920;12.238;2023-12-14T17:41:44;14.55;;;7.70;;
21000;SDS011;10658;50.920;12.238;2023-12-14T17:45:46;14.48;;;7.85;;
21000;SDS011;10658;50.920;12.238;2023-12-14T17:49:48;12.23;;;6.57;;
21000;SDS011;10658;50.920;12.238;2023-12-14T17:53:49;10.18;;;6.22;;
21000;SDS011;10658;50.920;12.238;2023-12-14T17:57:50;11.13;;;6.53;;
21000;SDS011;10658;50.920;12.238;2023-12-14T18:01:51;10.10;;;6.05;;
21000;SDS011;10658;50.920;12.238;2023-12-14T18:05:52;10.00;;;6.30;;
21000;SDS011;10658;50.920;12.238;2023-12-14T18:09:53;8.45;;;5.50;;
21000;SDS011;10658;50.920;12.238;2023-12-14T18:13:54;12.70;;;6.47;;
21000;SDS011;10658;50.920;12.238;2023-12-14T18:17:55;11.70;;;7.57;;
21000;SDS011;10658;50.920;12.238;2023-12-14T18:21:56;10.45;;;6.88;;
21000;SDS011;10658;50.920;12.238;2023-12-14T18:25:57;13.15;;;7.13;;
21000;SDS011;10658;50.920;12.238;2023-12-14T18:29:58;9.25;;;6.47;;
21000;SDS011;10658;50.920;12.238;2023-12-14T18:33:59;13.10;;;6.85;;
21000;SDS011;10658;50.920;12.238;2023-12-14T18:38:00;13.20;;;6.88;;
21000;SDS011;10658;50.920;12.238;2023-12-14T18:42:02;9.35;;;5.45;;
21000;SDS011;10658;50.920;12.238;2023-12-14T18:46:05;9.20;;;5.82;;
21000;SDS011;10658;50.920;12.238;2023-12-14T18:50:07;9.43;;;5.43;;
21000;SDS011;10658;50.920;12.238;2023-12-14T18:54:08;7.65;;;5.18;;
21000;SDS011;10658;50.920;12.238;2023-12-14T18:58:11;8.73;;;5.57;;
21000;SDS011;10658;50.920;12.238;2023-12-14T19:02:12;9.65;;;5.85;;
21000;SDS011;10658;50.920;12.238;2023-12-14T19:06:13;10.23;;;5.88;;
21000;SDS011;10658;50.920;12.238;2023-12-14T19:10:20;10.65;;;6.15;;
21000;SDS011;10658;50.920;12.238;2023-12-14T19:14:26;9.48;;;6.07;;
21000;SDS011;10658;50.920;12.238;2023-12-14T19:18:26;8.98;;;5.82;;
21000;SDS011;10658;50.920;12.238;2023-12-14T19:22:27;9.25;;;5.97;;
21000;SDS011;10658;50.920;12.238;2023-12-14T19:26:32;8.30;;;5.85;;
21000;SDS011;10658;50.920;12.238;2023-12-14T19:30:32;10.73;;;6.57;;
21000;SDS011;10658;50.920;12.238;2023-12-14T19:34:33;13.50;;;7.65;;
21000;SDS011;10658;50.920;12.238;2023-12-14T19:38:34;11.90;;;7.70;;
21000;SDS011;10658;50.920;12.238;2023-12-14T19:42:36;13.30;;;6.40;;
21000;SDS011;10658;50.920;12.238;2023-12-14T19:46:36;9.88;;;6.30;;
21000;SDS011;10658;50.920;12.238;2023-12-14T19:50:37;10.80;;;6.57;;
21000;SDS011;10658;50.920;12.238;2023-12-14T19:54:39;10.20;;;6.55;;
21000;SDS011;10658;50.920;12.238;2023-12-14T19:58:42;9.10;;;6.05;;
21000;SDS011;10658;50.920;12.238;2023-12-14T20:02:50;12.75;;;6.10;;
21000;SDS011;10658;50.920;12.238;2023-12-14T20:06:54;10.70;;;6.70;;
21000;SDS011;10658;50.920;12.238;2023-12-14T20:10:55;10.40;;;6.13;;
21000;SDS011;10658;50.920;12.238;2023-12-14T20:14:56;14.40;;;7.18;;
21000;SDS011;10658;50.920;12.238;2023-12-14T20:18:57;11.77;;;7.15;;
21000;SDS011;10658;50.920;12.238;2023-12-14T20:23:01;8.55;;;5.28;;
21000;SDS011;10658;50.920;12.238;2023-12-14T20:27:03;10.57;;;6.50;;
21000;SDS011;10658;50.920;12.238;2023-12-14T20:31:04;13.48;;;7.28;;
21000;SDS011;10658;50.920;12.238;2023-12-14T20:35:06;9.70;;;5.88;;
21000;SDS011;10658;50.920;12.238;2023-12-14T20:39:07;13.38;;;6.43;;
21000;SDS011;10658;50.920;12.238;2023-12-14T20:43:08;9.20;;;5.93;;
21000;SDS011;10658;50.920;12.238;2023-12-14T20:47:10;11.05;;;6.63;;
21000;SDS011;10658;50.920;12.238;2023-12-14T20:51:11;13.02;;;6.80;;
21000;SDS011;10658;50.920;12.238;2023-12-14T20:55:12;13.05;;;7.10;;
21000;SDS011;10658;50.920;12.238;2023-12-14T20:59:14;10.88;;;6.38;;
21000;SDS011;10658;50.920;12.238;2023-12-14T21:03:15;8.73;;;5.72;;
21000;SDS011;10658;50.920;12.238;2023-12-14T21:07:17;10.55;;;5.95;;
21000;SDS011;10658;50.920;12.238;2023-12-14T21:11:18;10.40;;;6.35;;
21000;SDS011;10658;50.920;12.238;2023-12-14T21:15:20;11.45;;;6.18;;
21000;SDS011;10658;50.920;12.238;2023-12-14T21:19:21;7.95;;;5.10;;
21000;SDS011;10658;50.920;12.238;2023-12-14T21:23:22;10.35;;;6.13;;
21000;SDS011;10658;50.920;12.238;2023-12-14T21:27:23;10.07;;;5.45;;
21000;SDS011;10658;50.920;12.238;2023-12-14T21:31:43;9.63;;;5.18;;
21000;SDS011;10658;50.920;12.238;2023-12-14T21:35:44;7.35;;;5.25;;
21000;SDS011;10658;50.920;12.238;2023-12-14T21:39:45;10.93;;;5.40;;
21000;SDS011;10658;50.920;12.238;2023-12-14T21:43:46;8.05;;;4.45;;
21000;SDS011;10658;50.920;12.238;2023-12-14T21:47:48;5.97;;;3.72;;
21000;SDS011;10658;50.920;12.238;2023-12-14T21:51:49;6.75;;;4.32;;
21000;SDS011;10658;50.920;12.238;2023-12-14T21:55:50;6.78;;;4.13;;
21000;SDS011;10658;50.920;12.238;2023-12-14T21:59:51;6.82;;;3.78;;
21000;SDS011;10658;50.920;12.238;2023-12-14T22:03:52;8.35;;;4.85;;
21000;SDS011;10658;50.920;12.238;2023-12-14T22:07:53;6.60;;;3.90;;
21000;SDS011;10658;50.920;12.238;2023-12-14T22:11:54;5.35;;;3.45;;
21000;SDS011;10658;50.920;12.238;2023-12-14T22:15:55;6.35;;;3.85;;
21000;SDS011;10658;50.920;12.238;2023-12-14T22:19:56;5.25;;;3.33;;
21000;SDS011;10658;50.920;12.238;2023-12-14T22:23:56;4.95;;;3.35;;
21000;SDS011;10658;50.920;12.238;2023-12-14T22:32:51;6.50;;;3.17;;
21000;SDS011;10658;50.920;12.238;2023-12-14T22:36:53;7.60;;;3.85;;
21000;SDS011;10658;50.920;12.238;2023-12-14T22:40:54;4.65;;;2.70;;
21000;SDS011;10658;50.920;12.238;2023-12-14T22:44:54;5.10;;;3.30;;
21000;SDS011;10658;50.920;12.238;2023-12-14T22:48:55;4.82;;;4.05;;
21000;SDS011;10658;50.920;12.238;2023-12-14T22:52:56;5.68;;;3.67;;
21000;SDS011;10658;50.920;12.238;2023-12-14T22:56:57;6.60;;;3.80;;
21000;SDS011;10658;50.920;12.238;2023-12-14T23:00:58;5.88;;;3.60;;
21000;SDS011;10658;50.920;12.238;2023-12-14T23:04:59;8.57;;;3.67;;
21000;SDS011;10658;50.920;12.238;2023-12-14T23:09:02;5.18;;;3.05;;
21000;SDS011;10658;50.920;12.238;2023-12-14T23:13:04;7.15;;;3.50;;
21000;SDS011;10658;50.920;12.238;2023-12-14T23:17:05;5.20;;;2.88;;
21000;SDS011;10658;50.920;12.238;2023-12-14T23:21:06;5.43;;;3.67;;
21000;SDS011;10658;50.920;12.238;2023-12-14T23:25:07;3.58;;;2.92;;
21000;SDS011;10658;50.920;12.238;2023-12-14T23:29:08;4.53;;;2.85;;
21000;SDS011;10658;50.920;12.238;2023-12-14T23:33:09;6.90;;;3.33;;
21000;SDS011;10658;50.920;12.238;2023-12-14T23:37:10;5.72;;;3.00;;
21000;SDS011;10658;50.920;12.238;2023-12-14T23:41:11;5.80;;;3.55;;
21000;SDS011;10658;50.920;12.238;2023-12-14T23:45:12;7.45;;;3.22;;